sensor_id;sensor_type;location;lat;lon;timestamp;P1;durP1;ratioP1;P2;durP2;ratioP2
40787;SDS011;26497;52.494;7.546;2023-08-01T00:01:29;110.82;;;104.05;;
40787;SDS011;26497;52.494;7.546;2023-08-01T00:03:56;112.72;;;105.63;;
40787;SDS011;26497;52.494;7.546;2023-08-01T00:06:23;113.78;;;106.93;;
40787;SDS011;26497;52.494;7.546;2023-08-01T00:08:50;117.15;;;110.20;;
40787;SDS011;26497;52.494;7.546;2023-08-01T00:11:17;120.30;;;113.18;;
40787;SDS011;26497;52.494;7.546;2023-08-01T00:13:44;114.63;;;106.68;;
40787;SDS011;26497;52.494;7.546;2023-08-01T00:16:12;116.13;;;108.90;;
40787;SDS011;26497;52.494;7.546;2023-08-01T00:18:40;112.90;;;106.10;;
40787;SDS011;26497;52.494;7.546;2023-08-01T00:21:07;111.07;;;104.78;;
40787;SDS011;26497;52.494;7.546;2023-08-01T00:23:35;114.35;;;106.68;;
40787;SDS011;26497;52.494;7.546;2023-08-01T00:26:02;110.53;;;103.82;;
40787;SDS011;26497;52.494;7.546;2023-08-01T00:28:29;96.25;;;90.53;;
40787;SDS011;26497;52.494;7.546;2023-08-01T00:31:03;97.70;;;91.60;;
40787;SDS011;26497;52.494;7.546;2023-08-01T00:33:33;97.53;;;91.07;;
40787;SDS011;26497;52.494;7.546;2023-08-01T00:36:00;103.50;;;97.05;;
40787;SDS011;26497;52.494;7.546;2023-08-01T00:38:27;102.82;;;96.43;;
40787;SDS011;26497;52.494;7.546;2023-08-01T00:40:54;98.93;;;92.55;;
40787;SDS011;26497;52.494;7.546;2023-08-01T00:43:21;101.57;;;94.95;;
40787;SDS011;26497;52.494;7.546;2023-08-01T00:45:48;99.22;;;93.30;;
40787;SDS011;26497;52.494;7.546;2023-08-01T00:48:15;100.50;;;94.45;;
40787;SDS011;26497;52.494;7.546;2023-08-01T00:50:45;97.57;;;91.55;;
40787;SDS011;26497;52.494;7.546;2023-08-01T00:53:12;94.35;;;88.55;;
40787;SDS011;26497;52.494;7.546;2023-08-01T00:55:39;97.22;;;90.82;;
40787;SDS011;26497;52.494;7.546;2023-08-01T00:58:06;96.20;;;90.38;;
40787;SDS011;26497;52.494;7.546;2023-08-01T01:00:33;102.00;;;95.60;;
40787;SDS011;26497;52.494;7.546;2023-08-01T01:03:01;105.43;;;98.90;;
40787;SDS011;26497;52.494;7.546;2023-08-01T01:05:29;103.22;;;96.97;;
40787;SDS011;26497;52.494;7.546;2023-08-01T01:08:03;109.10;;;101.95;;
40787;SDS011;26497;52.494;7.546;2023-08-01T01:10:31;112.78;;;105.70;;
40787;SDS011;26497;52.494;7.546;2023-08-01T01:12:58;111.40;;;104.78;;
40787;SDS011;26497;52.494;7.546;2023-08-01T01:15:25;111.15;;;104.70;;
40787;SDS011;26497;52.494;7.546;2023-08-01T01:17:52;110.75;;;103.60;;
40787;SDS011;26497;52.494;7.546;2023-08-01T01:20:22;107.45;;;100.93;;
40787;SDS011;26497;52.494;7.546;2023-08-01T01:22:51;108.93;;;102.20;;
40787;SDS011;26497;52.494;7.546;2023-08-01T01:25:20;111.60;;;104.68;;
40787;SDS011;26497;52.494;7.546;2023-08-01T01:27:48;110.70;;;104.10;;
40787;SDS011;26497;52.494;7.546;2023-08-01T01:30:17;113.00;;;105.85;;
40787;SDS011;26497;52.494;7.546;2023-08-01T01:32:45;1999.90;;;999.90;;
40787;SDS011;26497;52.494;7.546;2023-08-01T01:35:12;122.88;;;115.22;;
40787;SDS011;26497;52.494;7.546;2023-08-01T01:37:39;131.40;;;123.38;;
40787;SDS011;26497;52.494;7.546;2023-08-01T01:40:08;130.18;;;122.13;;
40787;SDS011;26497;52.494;7.546;2023-08-01T01:42:36;134.70;;;126.65;;
40787;SDS011;26497;52.494;7.546;2023-08-01T01:45:03;135.88;;;127.28;;
40787;SDS011;26497;52.494;7.546;2023-08-01T01:47:31;133.52;;;125.75;;
40787;SDS011;26497;52.494;7.546;2023-08-01T01:49:58;134.90;;;125.72;;
40787;SDS011;26497;52.494;7.546;2023-08-01T01:52:25;134.55;;;126.30;;
40787;SDS011;26497;52.494;7.546;2023-08-01T01:54:52;138.23;;;129.50;;
40787;SDS011;26497;52.494;7.546;2023-08-01T01:57:21;137.48;;;128.95;;
40787;SDS011;26497;52.494;7.546;2023-08-01T01:59:48;139.38;;;131.00;;
40787;SDS011;26497;52.494;7.546;2023-08-01T02:02:14;136.80;;;128.73;;
40787;SDS011;26497;52.494;7.546;2023-08-01T02:04:41;141.35;;;132.68;;
40787;SDS011;26497;52.494;7.546;2023-08-01T02:07:08;138.55;;;130.27;;
40787;SDS011;26497;52.494;7.546;2023-08-01T02:09:35;136.48;;;128.00;;
40787;SDS011;26497;52.494;7.546;2023-08-01T02:12:02;139.00;;;130.00;;
40787;SDS011;26497;52.494;7.546;2023-08-01T02:14:32;135.60;;;126.65;;
40787;SDS011;26497;52.494;7.546;2023-08-01T02:16:59;132.35;;;123.88;;
40787;SDS011;26497;52.494;7.546;2023-08-01T02:19:26;131.25;;;122.53;;
40787;SDS011;26497;52.494;7.546;2023-08-01T02:21:53;132.00;;;123.03;;
40787;SDS011;26497;52.494;7.546;2023-08-01T02:24:20;134.25;;;124.78;;
40787;SDS011;26497;52.494;7.546;2023-08-01T02:26:47;131.73;;;122.47;;
40787;SDS011;26497;52.494;7.546;2023-08-01T02:29:16;121.88;;;113.85;;
40787;SDS011;26497;52.494;7.546;2023-08-01T02:31:44;125.95;;;117.43;;
40787;SDS011;26497;52.494;7.546;2023-08-01T02:34:11;130.10;;;121.25;;
40787;SDS011;26497;52.494;7.546;2023-08-01T02:36:38;120.13;;;111.68;;
40787;SDS011;26497;52.494;7.546;2023-08-01T02:39:06;107.00;;;99.32;;
40787;SDS011;26497;52.494;7.546;2023-08-01T02:41:33;109.32;;;101.70;;
40787;SDS011;26497;52.494;7.546;2023-08-01T02:44:00;113.20;;;104.88;;
40787;SDS011;26497;52.494;7.546;2023-08-01T02:46:27;112.18;;;103.70;;
40787;SDS011;26497;52.494;7.546;2023-08-01T02:48:56;107.22;;;99.20;;
40787;SDS011;26497;52.494;7.546;2023-08-01T02:51:23;107.00;;;99.22;;
40787;SDS011;26497;52.494;7.546;2023-08-01T02:53:50;109.47;;;101.03;;
40787;SDS011;26497;52.494;7.546;2023-08-01T02:56:17;109.47;;;101.25;;
40787;SDS011;26497;52.494;7.546;2023-08-01T02:58:43;110.72;;;102.05;;
40787;SDS011;26497;52.494;7.546;2023-08-01T03:01:11;117.07;;;108.10;;
40787;SDS011;26497;52.494;7.546;2023-08-01T03:03:38;1999.90;;;999.90;;
40787;SDS011;26497;52.494;7.546;2023-08-01T03:06:07;1999.90;;;999.90;;
40787;SDS011;26497;52.494;7.546;2023-08-01T03:08:34;1999.90;;;999.90;;
40787;SDS011;26497;52.494;7.546;2023-08-01T03:11:01;1075.25;;;570.13;;
40787;SDS011;26497;52.494;7.546;2023-08-01T03:13:28;143.45;;;133.38;;
40787;SDS011;26497;52.494;7.546;2023-08-01T03:15:55;147.52;;;137.27;;
40787;SDS011;26497;52.494;7.546;2023-08-01T03:18:22;149.85;;;139.45;;
40787;SDS011;26497;52.494;7.546;2023-08-01T03:20:49;140.32;;;130.70;;
40787;SDS011;26497;52.494;7.546;2023-08-01T03:23:18;133.32;;;123.75;;
40787;SDS011;26497;52.494;7.546;2023-08-01T03:25:45;142.68;;;132.48;;
40787;SDS011;26497;52.494;7.546;2023-08-01T03:28:11;143.98;;;134.13;;
40787;SDS011;26497;52.494;7.546;2023-08-01T03:30:39;149.85;;;139.45;;
40787;SDS011;26497;52.494;7.546;2023-08-01T03:33:06;151.00;;;140.65;;
40787;SDS011;26497;52.494;7.546;2023-08-01T03:35:33;153.50;;;142.68;;
40787;SDS011;26497;52.494;7.546;2023-08-01T03:38:00;153.68;;;143.48;;
40787;SDS011;26497;52.494;7.546;2023-08-01T03:40:28;143.32;;;133.60;;
40787;SDS011;26497;52.494;7.546;2023-08-01T03:42:55;132.10;;;122.65;;
40787;SDS011;26497;52.494;7.546;2023-08-01T03:45:22;122.95;;;113.93;;
40787;SDS011;26497;52.494;7.546;2023-08-01T03:47:49;129.55;;;120.38;;
40787;SDS011;26497;52.494;7.546;2023-08-01T03:50:16;125.55;;;116.68;;
40787;SDS011;26497;52.494;7.546;2023-08-01T03:52:43;127.07;;;117.10;;
40787;SDS011;26497;52.494;7.546;2023-08-01T03:55:10;125.78;;;116.40;;
40787;SDS011;26497;52.494;7.546;2023-08-01T03:57:39;124.93;;;115.00;;
40787;SDS011;26497;52.494;7.546;2023-08-01T04:00:06;122.53;;;114.38;;
40787;SDS011;26497;52.494;7.546;2023-08-01T04:02:38;125.75;;;117.03;;
40787;SDS011;26497;52.494;7.546;2023-08-01T04:05:06;140.77;;;130.95;;
40787;SDS011;26497;52.494;7.546;2023-08-01T04:07:34;625.55;;;367.25;;
40787;SDS011;26497;52.494;7.546;2023-08-01T04:10:02;630.20;;;371.58;;
40787;SDS011;26497;52.494;7.546;2023-08-01T04:12:30;169.15;;;157.05;;
40787;SDS011;26497;52.494;7.546;2023-08-01T04:14:59;172.30;;;161.35;;
40787;SDS011;26497;52.494;7.546;2023-08-01T04:17:26;168.25;;;157.38;;
40787;SDS011;26497;52.494;7.546;2023-08-01T04:19:54;165.57;;;153.45;;
40787;SDS011;26497;52.494;7.546;2023-08-01T04:22:21;161.52;;;149.82;;
40787;SDS011;26497;52.494;7.546;2023-08-01T04:24:48;165.07;;;153.23;;
40787;SDS011;26497;52.494;7.546;2023-08-01T04:27:15;626.90;;;367.95;;
40787;SDS011;26497;52.494;7.546;2023-08-01T04:29:42;624.13;;;365.25;;
40787;SDS011;26497;52.494;7.546;2023-08-01T04:32:11;158.52;;;147.82;;
40787;SDS011;26497;52.494;7.546;2023-08-01T04:34:40;157.60;;;145.88;;
40787;SDS011;26497;52.494;7.546;2023-08-01T04:37:07;162.55;;;150.18;;
40787;SDS011;26497;52.494;7.546;2023-08-01T04:39:35;164.85;;;153.07;;
40787;SDS011;26497;52.494;7.546;2023-08-01T04:42:02;156.18;;;145.50;;
40787;SDS011;26497;52.494;7.546;2023-08-01T04:44:30;153.98;;;142.93;;
40787;SDS011;26497;52.494;7.546;2023-08-01T04:46:57;155.05;;;143.95;;
40787;SDS011;26497;52.494;7.546;2023-08-01T04:49:27;158.82;;;147.35;;
40787;SDS011;26497;52.494;7.546;2023-08-01T04:51:53;162.73;;;150.88;;
40787;SDS011;26497;52.494;7.546;2023-08-01T04:54:21;154.35;;;142.88;;
40787;SDS011;26497;52.494;7.546;2023-08-01T04:56:48;140.50;;;131.07;;
40787;SDS011;26497;52.494;7.546;2023-08-01T04:59:15;125.05;;;116.55;;
40787;SDS011;26497;52.494;7.546;2023-08-01T05:01:42;93.78;;;86.85;;
40787;SDS011;26497;52.494;7.546;2023-08-01T05:04:09;92.05;;;85.28;;
40787;SDS011;26497;52.494;7.546;2023-08-01T05:06:38;92.75;;;85.53;;
40787;SDS011;26497;52.494;7.546;2023-08-01T05:09:05;92.38;;;84.80;;
40787;SDS011;26497;52.494;7.546;2023-08-01T05:11:32;87.97;;;79.95;;
40787;SDS011;26497;52.494;7.546;2023-08-01T05:13:59;92.88;;;85.35;;
40787;SDS011;26497;52.494;7.546;2023-08-01T05:16:26;92.45;;;84.95;;
40787;SDS011;26497;52.494;7.546;2023-08-01T05:18:53;94.30;;;87.03;;
40787;SDS011;26497;52.494;7.546;2023-08-01T05:21:20;97.18;;;90.28;;
40787;SDS011;26497;52.494;7.546;2023-08-01T05:23:49;95.93;;;89.35;;
40787;SDS011;26497;52.494;7.546;2023-08-01T05:26:16;102.57;;;95.28;;
40787;SDS011;26497;52.494;7.546;2023-08-01T05:28:43;105.53;;;98.85;;
40787;SDS011;26497;52.494;7.546;2023-08-01T05:31:10;108.38;;;101.07;;
40787;SDS011;26497;52.494;7.546;2023-08-01T05:33:37;101.65;;;94.53;;
40787;SDS011;26497;52.494;7.546;2023-08-01T05:36:04;105.53;;;98.80;;
40787;SDS011;26497;52.494;7.546;2023-08-01T05:38:31;101.43;;;94.07;;
40787;SDS011;26497;52.494;7.546;2023-08-01T05:40:59;103.68;;;96.25;;
40787;SDS011;26497;52.494;7.546;2023-08-01T05:43:26;99.45;;;92.45;;
40787;SDS011;26497;52.494;7.546;2023-08-01T05:45:53;101.35;;;94.07;;
40787;SDS011;26497;52.494;7.546;2023-08-01T05:48:20;101.32;;;93.85;;
40787;SDS011;26497;52.494;7.546;2023-08-01T05:50:47;98.63;;;91.18;;
40787;SDS011;26497;52.494;7.546;2023-08-01T05:53:14;93.15;;;86.88;;
40787;SDS011;26497;52.494;7.546;2023-08-01T05:55:41;84.90;;;78.72;;
40787;SDS011;26497;52.494;7.546;2023-08-01T05:58:09;81.60;;;75.75;;
40787;SDS011;26497;52.494;7.546;2023-08-01T06:00:36;85.35;;;79.05;;
40787;SDS011;26497;52.494;7.546;2023-08-01T06:03:03;96.72;;;90.28;;
40787;SDS011;26497;52.494;7.546;2023-08-01T06:05:30;106.78;;;100.15;;
40787;SDS011;26497;52.494;7.546;2023-08-01T06:07:57;115.72;;;107.95;;
40787;SDS011;26497;52.494;7.546;2023-08-01T06:10:24;105.97;;;99.07;;
40787;SDS011;26497;52.494;7.546;2023-08-01T06:12:51;92.57;;;87.03;;
40787;SDS011;26497;52.494;7.546;2023-08-01T06:15:20;85.22;;;79.80;;
40787;SDS011;26497;52.494;7.546;2023-08-01T06:17:47;82.50;;;77.00;;
40787;SDS011;26497;52.494;7.546;2023-08-01T06:20:14;77.90;;;72.88;;
40787;SDS011;26497;52.494;7.546;2023-08-01T06:22:41;75.80;;;69.63;;
40787;SDS011;26497;52.494;7.546;2023-08-01T06:25:08;72.28;;;67.47;;
40787;SDS011;26497;52.494;7.546;2023-08-01T06:27:36;80.28;;;74.35;;
40787;SDS011;26497;52.494;7.546;2023-08-01T06:30:03;78.65;;;73.38;;
40787;SDS011;26497;52.494;7.546;2023-08-01T06:32:32;81.28;;;75.82;;
40787;SDS011;26497;52.494;7.546;2023-08-01T06:34:59;83.90;;;77.68;;
40787;SDS011;26497;52.494;7.546;2023-08-01T06:37:26;77.05;;;72.05;;
40787;SDS011;26497;52.494;7.546;2023-08-01T06:39:54;72.63;;;67.78;;
40787;SDS011;26497;52.494;7.546;2023-08-01T06:42:21;70.20;;;65.60;;
40787;SDS011;26497;52.494;7.546;2023-08-01T06:44:48;73.35;;;68.32;;
40787;SDS011;26497;52.494;7.546;2023-08-01T06:47:15;73.18;;;68.28;;
40787;SDS011;26497;52.494;7.546;2023-08-01T06:49:43;73.38;;;68.13;;
40787;SDS011;26497;52.494;7.546;2023-08-01T06:52:10;73.40;;;68.28;;
40787;SDS011;26497;52.494;7.546;2023-08-01T06:54:37;71.72;;;66.55;;
40787;SDS011;26497;52.494;7.546;2023-08-01T06:57:05;71.40;;;66.78;;
40787;SDS011;26497;52.494;7.546;2023-08-01T06:59:32;74.13;;;68.70;;
40787;SDS011;26497;52.494;7.546;2023-08-01T07:02:00;73.20;;;67.90;;
40787;SDS011;26497;52.494;7.546;2023-08-01T07:04:27;68.30;;;63.92;;
40787;SDS011;26497;52.494;7.546;2023-08-01T07:06:55;73.35;;;68.43;;
40787;SDS011;26497;52.494;7.546;2023-08-01T07:09:22;71.40;;;66.85;;
40787;SDS011;26497;52.494;7.546;2023-08-01T07:11:49;67.25;;;63.13;;
40787;SDS011;26497;52.494;7.546;2023-08-01T07:14:16;71.28;;;66.50;;
40787;SDS011;26497;52.494;7.546;2023-08-01T07:16:43;67.28;;;63.15;;
40787;SDS011;26497;52.494;7.546;2023-08-01T07:19:16;73.43;;;67.93;;
40787;SDS011;26497;52.494;7.546;2023-08-01T07:21:43;72.55;;;67.60;;
40787;SDS011;26497;52.494;7.546;2023-08-01T07:24:14;75.38;;;70.18;;
40787;SDS011;26497;52.494;7.546;2023-08-01T07:26:41;80.13;;;75.10;;
40787;SDS011;26497;52.494;7.546;2023-08-01T07:29:08;83.07;;;77.63;;
40787;SDS011;26497;52.494;7.546;2023-08-01T07:31:36;562.10;;;307.90;;
40787;SDS011;26497;52.494;7.546;2023-08-01T07:34:03;1999.90;;;999.90;;
40787;SDS011;26497;52.494;7.546;2023-08-01T07:36:30;1999.90;;;999.90;;
40787;SDS011;26497;52.494;7.546;2023-08-01T07:38:57;1999.90;;;999.90;;
40787;SDS011;26497;52.494;7.546;2023-08-01T07:41:25;1999.90;;;999.90;;
40787;SDS011;26497;52.494;7.546;2023-08-01T07:43:52;1999.90;;;999.90;;
40787;SDS011;26497;52.494;7.546;2023-08-01T07:46:19;1999.90;;;999.90;;
40787;SDS011;26497;52.494;7.546;2023-08-01T07:48:46;1999.90;;;999.90;;
40787;SDS011;26497;52.494;7.546;2023-08-01T07:51:14;1999.90;;;999.90;;
40787;SDS011;26497;52.494;7.546;2023-08-01T07:53:41;1999.90;;;999.90;;
40787;SDS011;26497;52.494;7.546;2023-08-01T07:56:08;109.55;;;103.30;;
40787;SDS011;26497;52.494;7.546;2023-08-01T07:58:37;106.30;;;100.20;;
40787;SDS011;26497;52.494;7.546;2023-08-01T08:01:04;101.13;;;95.43;;
40787;SDS011;26497;52.494;7.546;2023-08-01T08:03:31;90.88;;;85.15;;
40787;SDS011;26497;52.494;7.546;2023-08-01T08:05:58;92.20;;;87.05;;
40787;SDS011;26497;52.494;7.546;2023-08-01T08:08:25;1999.90;;;999.90;;
40787;SDS011;26497;52.494;7.546;2023-08-01T08:10:52;111.57;;;105.28;;
40787;SDS011;26497;52.494;7.546;2023-08-01T08:13:19;70.80;;;67.00;;
40787;SDS011;26497;52.494;7.546;2023-08-01T08:15:48;58.65;;;55.28;;
40787;SDS011;26497;52.494;7.546;2023-08-01T08:18:15;56.13;;;52.72;;
40787;SDS011;26497;52.494;7.546;2023-08-01T08:20:44;58.75;;;55.53;;
40787;SDS011;26497;52.494;7.546;2023-08-01T08:23:11;57.22;;;54.00;;
40787;SDS011;26497;52.494;7.546;2023-08-01T08:25:39;62.38;;;58.78;;
40787;SDS011;26497;52.494;7.546;2023-08-01T08:28:07;59.03;;;55.65;;
40787;SDS011;26497;52.494;7.546;2023-08-01T08:30:35;59.22;;;56.03;;
40787;SDS011;26497;52.494;7.546;2023-08-01T08:33:03;59.65;;;55.72;;
40787;SDS011;26497;52.494;7.546;2023-08-01T08:35:32;56.70;;;53.53;;
40787;SDS011;26497;52.494;7.546;2023-08-01T08:38:00;60.08;;;56.22;;
40787;SDS011;26497;52.494;7.546;2023-08-01T08:40:29;58.83;;;55.00;;
40787;SDS011;26497;52.494;7.546;2023-08-01T08:42:57;72.20;;;67.40;;
40787;SDS011;26497;52.494;7.546;2023-08-01T08:45:28;73.53;;;68.65;;
40787;SDS011;26497;52.494;7.546;2023-08-01T08:48:01;71.32;;;67.18;;
40787;SDS011;26497;52.494;7.546;2023-08-01T08:50:35;75.32;;;70.63;;
40787;SDS011;26497;52.494;7.546;2023-08-01T08:53:04;71.30;;;67.07;;
40787;SDS011;26497;52.494;7.546;2023-08-01T08:55:37;72.20;;;68.00;;
40787;SDS011;26497;52.494;7.546;2023-08-01T08:58:05;75.25;;;70.35;;
40787;SDS011;26497;52.494;7.546;2023-08-01T09:00:33;79.13;;;73.97;;
40787;SDS011;26497;52.494;7.546;2023-08-01T09:03:04;84.22;;;78.40;;
40787;SDS011;26497;52.494;7.546;2023-08-01T09:05:33;83.03;;;77.70;;
40787;SDS011;26497;52.494;7.546;2023-08-01T09:08:13;87.65;;;81.05;;
40787;SDS011;26497;52.494;7.546;2023-08-01T09:10:45;95.53;;;89.22;;
40787;SDS011;26497;52.494;7.546;2023-08-01T09:13:13;1999.90;;;999.90;;
40787;SDS011;26497;52.494;7.546;2023-08-01T09:15:41;1999.90;;;999.90;;
40787;SDS011;26497;52.494;7.546;2023-08-01T09:18:11;1999.90;;;999.90;;
40787;SDS011;26497;52.494;7.546;2023-08-01T09:20:42;1999.90;;;999.90;;
40787;SDS011;26497;52.494;7.546;2023-08-01T09:23:11;1999.90;;;999.90;;
40787;SDS011;26497;52.494;7.546;2023-08-01T09:25:38;1999.90;;;999.90;;
40787;SDS011;26497;52.494;7.546;2023-08-01T09:28:16;1999.90;;;999.90;;
40787;SDS011;26497;52.494;7.546;2023-08-01T09:30:46;1999.90;;;999.90;;
40787;SDS011;26497;52.494;7.546;2023-08-01T09:33:16;1999.90;;;999.90;;
40787;SDS011;26497;52.494;7.546;2023-08-01T09:35:43;1999.90;;;999.90;;
40787;SDS011;26497;52.494;7.546;2023-08-01T09:38:11;102.30;;;95.97;;
40787;SDS011;26497;52.494;7.546;2023-08-01T09:40:40;119.80;;;112.88;;
40787;SDS011;26497;52.494;7.546;2023-08-01T09:43:09;120.05;;;112.72;;
40787;SDS011;26497;52.494;7.546;2023-08-01T09:45:36;105.20;;;98.55;;
40787;SDS011;26497;52.494;7.546;2023-08-01T09:48:03;95.40;;;89.85;;
40787;SDS011;26497;52.494;7.546;2023-08-01T09:50:33;87.75;;;82.18;;
40787;SDS011;26497;52.494;7.546;2023-08-01T09:53:09;89.43;;;83.15;;
40787;SDS011;26497;52.494;7.546;2023-08-01T09:55:36;109.00;;;102.50;;
40787;SDS011;26497;52.494;7.546;2023-08-01T09:58:05;1999.90;;;999.90;;
40787;SDS011;26497;52.494;7.546;2023-08-01T10:00:36;108.55;;;101.68;;
40787;SDS011;26497;52.494;7.546;2023-08-01T10:03:03;89.95;;;84.22;;
40787;SDS011;26497;52.494;7.546;2023-08-01T10:05:32;78.97;;;73.93;;
40787;SDS011;26497;52.494;7.546;2023-08-01T10:08:02;86.45;;;80.70;;
40787;SDS011;26497;52.494;7.546;2023-08-01T10:10:30;67.07;;;63.17;;
40787;SDS011;26497;52.494;7.546;2023-08-01T10:12:57;51.72;;;48.58;;
40787;SDS011;26497;52.494;7.546;2023-08-01T10:15:28;50.20;;;47.38;;
40787;SDS011;26497;52.494;7.546;2023-08-01T10:17:56;64.28;;;60.38;;
40787;SDS011;26497;52.494;7.546;2023-08-01T10:20:23;81.32;;;76.82;;
40787;SDS011;26497;52.494;7.546;2023-08-01T10:22:53;74.35;;;69.70;;
40787;SDS011;26497;52.494;7.546;2023-08-01T10:25:20;76.85;;;71.82;;
40787;SDS011;26497;52.494;7.546;2023-08-01T10:27:57;75.25;;;70.85;;
40787;SDS011;26497;52.494;7.546;2023-08-01T10:30:25;75.72;;;71.30;;
40787;SDS011;26497;52.494;7.546;2023-08-01T10:32:54;78.50;;;73.75;;
40787;SDS011;26497;52.494;7.546;2023-08-01T10:35:31;76.20;;;71.40;;
40787;SDS011;26497;52.494;7.546;2023-08-01T10:38:04;83.00;;;77.55;;
40787;SDS011;26497;52.494;7.546;2023-08-01T10:40:34;93.97;;;87.00;;
40787;SDS011;26497;52.494;7.546;2023-08-01T10:43:02;1999.90;;;999.90;;
40787;SDS011;26497;52.494;7.546;2023-08-01T10:45:29;1999.90;;;999.90;;
40787;SDS011;26497;52.494;7.546;2023-08-01T10:48:06;1999.90;;;999.90;;
40787;SDS011;26497;52.494;7.546;2023-08-01T10:50:35;1999.90;;;999.90;;
40787;SDS011;26497;52.494;7.546;2023-08-01T10:53:02;1999.90;;;999.90;;
40787;SDS011;26497;52.494;7.546;2023-08-01T10:58:07;96.47;;;90.18;;
40787;SDS011;26497;52.494;7.546;2023-08-01T11:00:34;86.43;;;80.95;;
40787;SDS011;26497;52.494;7.546;2023-08-01T11:03:02;1999.90;;;999.90;;
40787;SDS011;26497;52.494;7.546;2023-08-01T11:05:29;1999.90;;;999.90;;
40787;SDS011;26497;52.494;7.546;2023-08-01T11:07:56;1999.90;;;999.90;;
40787;SDS011;26497;52.494;7.546;2023-08-01T11:10:26;1999.90;;;999.90;;
40787;SDS011;26497;52.494;7.546;2023-08-01T11:12:56;1999.90;;;999.90;;
40787;SDS011;26497;52.494;7.546;2023-08-01T11:15:24;1999.90;;;999.90;;
40787;SDS011;26497;52.494;7.546;2023-08-01T11:17:52;1999.90;;;999.90;;
40787;SDS011;26497;52.494;7.546;2023-08-01T11:20:21;1999.90;;;999.90;;
40787;SDS011;26497;52.494;7.546;2023-08-01T11:22:52;1999.90;;;999.90;;
40787;SDS011;26497;52.494;7.546;2023-08-01T11:25:32;1999.90;;;999.90;;
40787;SDS011;26497;52.494;7.546;2023-08-01T11:28:05;1999.90;;;999.90;;
40787;SDS011;26497;52.494;7.546;2023-08-01T11:30:32;1999.90;;;999.90;;
40787;SDS011;26497;52.494;7.546;2023-08-01T11:33:00;1999.90;;;999.90;;
40787;SDS011;26497;52.494;7.546;2023-08-01T11:35:28;1999.90;;;999.90;;
40787;SDS011;26497;52.494;7.546;2023-08-01T11:37:55;1999.90;;;999.90;;
40787;SDS011;26497;52.494;7.546;2023-08-01T11:40:23;1999.90;;;999.90;;
40787;SDS011;26497;52.494;7.546;2023-08-01T11:42:55;1999.90;;;999.90;;
40787;SDS011;26497;52.494;7.546;2023-08-01T11:45:23;124.80;;;117.95;;
40787;SDS011;26497;52.494;7.546;2023-08-01T11:47:51;87.60;;;82.88;;
40787;SDS011;26497;52.494;7.546;2023-08-01T11:50:20;113.45;;;101.05;;
40787;SDS011;26497;52.494;7.546;2023-08-01T11:52:49;70.20;;;66.25;;
40787;SDS011;26497;52.494;7.546;2023-08-01T11:55:20;71.85;;;67.85;;
40787;SDS011;26497;52.494;7.546;2023-08-01T11:57:52;61.58;;;58.15;;
40787;SDS011;26497;52.494;7.546;2023-08-01T12:00:24;60.50;;;57.20;;
40787;SDS011;26497;52.494;7.546;2023-08-01T12:03:02;60.85;;;57.33;;
40787;SDS011;26497;52.494;7.546;2023-08-01T12:05:30;56.10;;;53.05;;
40787;SDS011;26497;52.494;7.546;2023-08-01T12:08:07;55.78;;;52.45;;
40787;SDS011;26497;52.494;7.546;2023-08-01T12:10:38;64.82;;;60.90;;
40787;SDS011;26497;52.494;7.546;2023-08-01T12:13:18;87.40;;;82.70;;
40787;SDS011;26497;52.494;7.546;2023-08-01T12:15:47;86.75;;;81.65;;
40787;SDS011;26497;52.494;7.546;2023-08-01T12:18:19;79.75;;;75.63;;
40787;SDS011;26497;52.494;7.546;2023-08-01T12:20:47;73.07;;;69.15;;
40787;SDS011;26497;52.494;7.546;2023-08-01T12:23:14;71.22;;;66.93;;
40787;SDS011;26497;52.494;7.546;2023-08-01T12:25:41;63.85;;;60.38;;
40787;SDS011;26497;52.494;7.546;2023-08-01T12:28:10;65.38;;;61.65;;
40787;SDS011;26497;52.494;7.546;2023-08-01T12:30:38;55.50;;;52.50;;
40787;SDS011;26497;52.494;7.546;2023-08-01T12:33:06;57.42;;;54.42;;
40787;SDS011;26497;52.494;7.546;2023-08-01T12:35:33;58.45;;;55.53;;
40787;SDS011;26497;52.494;7.546;2023-08-01T12:38:00;77.78;;;73.43;;
40787;SDS011;26497;52.494;7.546;2023-08-01T12:40:27;62.42;;;59.22;;
40787;SDS011;26497;52.494;7.546;2023-08-01T12:42:54;62.75;;;59.42;;
40787;SDS011;26497;52.494;7.546;2023-08-01T12:45:22;56.38;;;53.33;;
40787;SDS011;26497;52.494;7.546;2023-08-01T12:47:49;75.80;;;71.95;;
40787;SDS011;26497;52.494;7.546;2023-08-01T12:50:16;62.13;;;58.90;;
40787;SDS011;26497;52.494;7.546;2023-08-01T12:52:43;58.10;;;55.13;;
40787;SDS011;26497;52.494;7.546;2023-08-01T12:55:10;86.75;;;82.13;;
40787;SDS011;26497;52.494;7.546;2023-08-01T12:57:37;65.97;;;62.38;;
40787;SDS011;26497;52.494;7.546;2023-08-01T13:00:05;55.70;;;52.75;;
40787;SDS011;26497;52.494;7.546;2023-08-01T13:02:36;70.53;;;66.65;;
40787;SDS011;26497;52.494;7.546;2023-08-01T13:05:03;40.35;;;38.15;;
40787;SDS011;26497;52.494;7.546;2023-08-01T13:07:31;57.20;;;53.90;;
40787;SDS011;26497;52.494;7.546;2023-08-01T13:09:59;60.65;;;57.45;;
40787;SDS011;26497;52.494;7.546;2023-08-01T13:12:27;38.22;;;36.20;;
40787;SDS011;26497;52.494;7.546;2023-08-01T13:14:53;49.75;;;46.78;;
40787;SDS011;26497;52.494;7.546;2023-08-01T13:17:20;52.80;;;50.03;;
40787;SDS011;26497;52.494;7.546;2023-08-01T13:19:49;62.15;;;58.70;;
40787;SDS011;26497;52.494;7.546;2023-08-01T13:22:16;56.55;;;53.53;;
40787;SDS011;26497;52.494;7.546;2023-08-01T13:24:44;91.13;;;86.03;;
40787;SDS011;26497;52.494;7.546;2023-08-01T13:27:12;69.75;;;66.05;;
40787;SDS011;26497;52.494;7.546;2023-08-01T13:29:39;78.85;;;74.40;;
40787;SDS011;26497;52.494;7.546;2023-08-01T13:32:06;91.03;;;86.07;;
40787;SDS011;26497;52.494;7.546;2023-08-01T13:34:33;65.40;;;61.95;;
40787;SDS011;26497;52.494;7.546;2023-08-01T13:37:02;85.88;;;81.10;;
40787;SDS011;26497;52.494;7.546;2023-08-01T13:39:29;78.57;;;73.80;;
40787;SDS011;26497;52.494;7.546;2023-08-01T13:41:56;60.58;;;57.35;;
40787;SDS011;26497;52.494;7.546;2023-08-01T13:44:23;76.72;;;72.10;;
40787;SDS011;26497;52.494;7.546;2023-08-01T13:46:50;58.80;;;55.08;;
40787;SDS011;26497;52.494;7.546;2023-08-01T13:49:18;55.35;;;52.28;;
40787;SDS011;26497;52.494;7.546;2023-08-01T13:51:45;51.45;;;48.40;;
40787;SDS011;26497;52.494;7.546;2023-08-01T13:54:13;37.90;;;35.80;;
40787;SDS011;26497;52.494;7.546;2023-08-01T13:56:40;42.75;;;40.00;;
40787;SDS011;26497;52.494;7.546;2023-08-01T13:59:07;37.17;;;35.08;;
40787;SDS011;26497;52.494;7.546;2023-08-01T14:01:34;38.72;;;36.42;;
40787;SDS011;26497;52.494;7.546;2023-08-01T14:04:03;30.52;;;28.83;;
40787;SDS011;26497;52.494;7.546;2023-08-01T14:06:30;36.60;;;34.50;;
40787;SDS011;26497;52.494;7.546;2023-08-01T14:08:57;38.72;;;36.53;;
40787;SDS011;26497;52.494;7.546;2023-08-01T14:11:25;39.25;;;37.15;;
40787;SDS011;26497;52.494;7.546;2023-08-01T14:13:52;45.10;;;42.40;;
40787;SDS011;26497;52.494;7.546;2023-08-01T14:16:19;50.33;;;47.22;;